Time;durP1;ratioP1;P1;durP2;ratioP2;P2;SDS_P1;SDS_P2;PMS_P1;PMS_P2;Temp;Humidity;BMP_temperature;BMP_pressure;BME280_temperature;BME280_humidity;BME280_pressure;Samples;Min_cycle;Max_cycle;Signal;HPM_P1;HPM_P2
2021/08/05 00:00:43;;;;;;;5;4.199999;;;;;;;13.94;100;94820.73;;;;
2021/08/05 00:01:43;;;;;;;5;4.199999;;;;;;;13.94;100;94820.73;;;;
2021/08/05 00:02:44;;;;;;;4.35;3.15;;;;;;;13.91;100;94806.73;;;;
2021/08/05 00:03:44;;;;;;;4.35;3.15;;;;;;;13.91;100;94806.73;;;;
2021/08/05 00:04:45;;;;;;;4.35;3.15;;;;;;;13.91;100;94806.73;;;;
2021/08/05 00:05:45;;;;;;;4.35;3.15;;;;;;;13.91;100;94806.73;;;;
2021/08/05 00:06:46;;;;;;;4.35;3.15;;;;;;;13.91;100;94806.73;;;;
2021/08/05 00:07:46;;;;;;;4.35;3.15;;;;;;;13.91;100;94806.73;;;;
2021/08/05 00:08:47;;;;;;;4.35;3.15;;;;;;;13.91;100;94806.73;;;;
2021/08/05 00:09:47;;;;;;;4.35;3.15;;;;;;;13.91;100;94806.73;;;;
2021/08/05 00:10:48;;;;;;;4.35;3.15;;;;;;;13.91;100;94806.73;;;;
2021/08/05 00:11:49;;;;;;;4.35;3.15;;;;;;;13.91;100;94806.73;;;;
2021/08/05 00:12:49;;;;;;;3.2;2.9;;;;;;;13.96;100;94801.31;;;;
2021/08/05 00:13:50;;;;;;;3.2;2.9;;;;;;;13.96;100;94801.31;;;;
2021/08/05 00:14:51;;;;;;;3.2;2.9;;;;;;;13.96;100;94801.31;;;;
2021/08/05 00:15:51;;;;;;;3.2;2.9;;;;;;;13.96;100;94801.31;;;;
2021/08/05 00:16:52;;;;;;;3.2;2.9;;;;;;;13.96;100;94801.31;;;;
2021/08/05 00:17:52;;;;;;;3.2;2.9;;;;;;;13.96;100;94801.31;;;;
2021/08/05 00:18:53;;;;;;;3.2;2.9;;;;;;;13.96;100;94801.31;;;;
2021/08/05 00:19:53;;;;;;;3.2;2.9;;;;;;;13.96;100;94801.31;;;;
2021/08/05 00:20:54;;;;;;;3.2;2.9;;;;;;;13.96;100;94801.31;;;;
2021/08/05 00:21:54;;;;;;;3.2;2.9;;;;;;;13.96;100;94801.31;;;;
2021/08/05 00:22:55;;;;;;;3.2;2.9;;;;;;;13.96;100;94801.31;;;;
2021/08/05 00:23:55;;;;;;;3.2;2.7;;;;;;;13.93;100;94796.84;;;;
2021/08/05 00:24:56;;;;;;;3.2;2.7;;;;;;;13.93;100;94796.84;;;;
2021/08/05 00:25:57;;;;;;;3.2;2.7;;;;;;;13.93;100;94796.84;;;;
2021/08/05 00:26:58;;;;;;;3.2;2.7;;;;;;;13.93;100;94796.84;;;;
2021/08/05 00:27:59;;;;;;;3.2;2.7;;;;;;;13.93;100;94796.84;;;;
2021/08/05 00:28:59;;;;;;;3.2;2.7;;;;;;;13.93;100;94796.84;;;;
2021/08/05 00:30:00;;;;;;;3.2;2.7;;;;;;;13.93;100;94796.84;;;;
2021/08/05 00:31:01;;;;;;;3.2;2.7;;;;;;;13.93;100;94796.84;;;;
2021/08/05 00:32:01;;;;;;;3.2;2.7;;;;;;;13.93;100;94796.84;;;;
2021/08/05 00:33:02;;;;;;;3.2;2.7;;;;;;;13.93;100;94796.84;;;;
2021/08/05 00:34:03;;;;;;;3.6;3.2;;;;;;;13.96;100;94799.95;;;;
2021/08/05 00:35:03;;;;;;;3.6;3.2;;;;;;;13.96;100;94799.95;;;;
2021/08/05 00:36:05;;;;;;;3.6;3.2;;;;;;;13.96;100;94799.95;;;;
2021/08/05 00:37:06;;;;;;;3.6;3.2;;;;;;;13.96;100;94799.95;;;;
2021/08/05 00:38:07;;;;;;;3.6;3.2;;;;;;;13.96;100;94799.95;;;;
2021/08/05 00:39:07;;;;;;;3.6;3.2;;;;;;;13.96;100;94799.95;;;;
2021/08/05 00:40:08;;;;;;;3.6;3.2;;;;;;;13.96;100;94799.95;;;;
2021/08/05 00:41:09;;;;;;;3.6;3.2;;;;;;;13.96;100;94799.95;;;;
2021/08/05 00:42:09;;;;;;;3.6;3.2;;;;;;;13.96;100;94799.95;;;;
2021/08/05 00:43:10;;;;;;;3.6;3.2;;;;;;;13.96;100;94799.95;;;;
2021/08/05 00:44:10;;;;;;;3.6;3.2;;;;;;;13.96;100;94799.95;;;;
2021/08/05 00:45:11;;;;;;;4.75;4.05;;;;;;;13.94;100;94796.31;;;;
2021/08/05 00:46:12;;;;;;;4.75;4.05;;;;;;;13.94;100;94796.31;;;;
2021/08/05 00:47:12;;;;;;;4.75;4.05;;;;;;;13.94;100;94796.31;;;;
2021/08/05 00:48:13;;;;;;;4.75;4.05;;;;;;;13.94;100;94796.31;;;;
2021/08/05 00:49:14;;;;;;;4.75;4.05;;;;;;;13.94;100;94796.31;;;;
2021/08/05 00:50:14;;;;;;;4.75;4.05;;;;;;;13.94;100;94796.31;;;;
2021/08/05 00:51:15;;;;;;;4.75;4.05;;;;;;;13.94;100;94796.31;;;;
2021/08/05 00:52:15;;;;;;;4.75;4.05;;;;;;;13.94;100;94796.31;;;;
2021/08/05 00:53:16;;;;;;;4.75;4.05;;;;;;;13.94;100;94796.31;;;;
2021/08/05 00:54:17;;;;;;;4.75;4.05;;;;;;;13.94;100;94796.31;;;;
2021/08/05 00:55:18;;;;;;;5.900001;4.900001;;;;;;;14.03;100;94795.9;;;;
2021/08/05 00:56:19;;;;;;;5.900001;4.900001;;;;;;;14.03;100;94795.9;;;;
2021/08/05 00:57:20;;;;;;;5.900001;4.900001;;;;;;;14.03;100;94795.9;;;;
2021/08/05 00:58:21;;;;;;;5.900001;4.900001;;;;;;;14.03;100;94795.9;;;;
2021/08/05 00:59:22;;;;;;;5.900001;4.900001;;;;;;;14.03;100;94795.9;;;;
2021/08/05 01:00:24;;;;;;;5.900001;4.900001;;;;;;;14.03;100;94795.9;;;;
2021/08/05 01:01:25;;;;;;;5.900001;4.900001;;;;;;;14.03;100;94795.9;;;;
2021/08/05 01:02:34;;;;;;;5.900001;4.900001;;;;;;;14.03;100;94795.9;;;;
2021/08/05 01:03:38;;;;;;;5.900001;4.900001;;;;;;;14.03;100;94795.9;;;;
2021/08/05 01:04:42;;;;;;;5.900001;4.900001;;;;;;;14.03;100;94795.9;;;;
2021/08/05 01:05:43;;;;;;;5.900001;4.900001;;;;;;;14.03;100;94795.9;;;;
2021/08/05 01:06:49;;;;;;;5.6;4.55;;;;;;;14.06;100;94794.56;;;;
2021/08/05 01:07:57;;;;;;;5.6;4.55;;;;;;;14.06;100;94794.56;;;;
2021/08/05 01:09:05;;;;;;;5.6;4.55;;;;;;;14.06;100;94794.56;;;;
2021/08/05 01:10:15;;;;;;;5.6;4.55;;;;;;;14.06;100;94794.56;;;;
2021/08/05 01:11:22;;;;;;;5.6;4.55;;;;;;;14.06;100;94794.56;;;;
2021/08/05 01:12:27;;;;;;;5.6;4.55;;;;;;;14.06;100;94794.56;;;;
2021/08/05 01:13:37;;;;;;;5.6;4.55;;;;;;;14.06;100;94794.56;;;;
2021/08/05 01:14:44;;;;;;;5.6;4.55;;;;;;;14.06;100;94794.56;;;;
2021/08/05 01:15:52;;;;;;;5.6;4.55;;;;;;;14.06;100;94794.56;;;;
2021/08/05 01:16:55;;;;;;;4.900001;3.75;;;;;;;14.06;100;94784.52;;;;
2021/08/05 01:17:56;;;;;;;4.900001;3.75;;;;;;;14.06;100;94784.52;;;;
2021/08/05 01:19:01;;;;;;;4.900001;3.75;;;;;;;14.06;100;94784.52;;;;
2021/08/05 01:20:21;;;;;;;4.900001;3.75;;;;;;;14.06;100;94784.52;;;;
2021/08/05 01:21:24;;;;;;;4.900001;3.75;;;;;;;14.06;100;94784.52;;;;
2021/08/05 01:22:36;;;;;;;4.900001;3.75;;;;;;;14.06;100;94784.52;;;;
2021/08/05 01:23:44;;;;;;;4.900001;3.75;;;;;;;14.06;100;94784.52;;;;
2021/08/05 01:24:52;;;;;;;4.900001;3.75;;;;;;;14.06;100;94784.52;;;;
2021/08/05 01:26:01;;;;;;;4.900001;3.75;;;;;;;14.06;100;94784.52;;;;
2021/08/05 01:27:09;;;;;;;4.900001;3.75;;;;;;;14.06;100;94784.52;;;;
2021/08/05 01:28:10;;;;;;;4.050001;3.4;;;;;;;14.12;100;94777.2;;;;
2021/08/05 01:29:12;;;;;;;4.050001;3.4;;;;;;;14.12;100;94777.2;;;;
2021/08/05 01:30:15;;;;;;;4.050001;3.4;;;;;;;14.12;100;94777.2;;;;
2021/08/05 01:31:16;;;;;;;4.050001;3.4;;;;;;;14.12;100;94777.2;;;;
2021/08/05 01:32:21;;;;;;;4.050001;3.4;;;;;;;14.12;100;94777.2;;;;
2021/08/05 01:33:22;;;;;;;4.050001;3.4;;;;;;;14.12;100;94777.2;;;;
2021/08/05 01:34:23;;;;;;;4.050001;3.4;;;;;;;14.12;100;94777.2;;;;
2021/08/05 01:35:24;;;;;;;4.050001;3.4;;;;;;;14.12;100;94777.2;;;;
2021/08/05 01:36:27;;;;;;;4.050001;3.4;;;;;;;14.12;100;94777.2;;;;
2021/08/05 01:37:28;;;;;;;4.050001;3.4;;;;;;;14.12;100;94777.2;;;;
2021/08/05 01:38:30;;;;;;;3.5;3;;;;;;;14.06;100;94781.93;;;;
2021/08/05 01:39:33;;;;;;;3.5;3;;;;;;;14.06;100;94781.93;;;;
2021/08/05 01:40:33;;;;;;;3.5;3;;;;;;;14.06;100;94781.93;;;;
2021/08/05 01:41:36;;;;;;;3.5;3;;;;;;;14.06;100;94781.93;;;;
2021/08/05 01:42:38;;;;;;;3.5;3;;;;;;;14.06;100;94781.93;;;;
2021/08/05 01:43:39;;;;;;;3.5;3;;;;;;;14.06;100;94781.93;;;;
2021/08/05 01:44:40;;;;;;;3.5;3;;;;;;;14.06;100;94781.93;;;;
2021/08/05 01:45:42;;;;;;;3.5;3;;;;;;;14.06;100;94781.93;;;;
2021/08/05 01:46:44;;;;;;;3.5;3;;;;;;;14.06;100;94781.93;;;;
2021/08/05 01:47:45;;;;;;;3.5;3;;;;;;;14.06;100;94781.93;;;;
2021/08/05 01:48:47;;;;;;;2.8;2.4;;;;;;;13.99;100;94776.36;;;;
2021/08/05 01:49:50;;;;;;;2.8;2.4;;;;;;;13.99;100;94776.36;;;;
2021/08/05 01:50:51;;;;;;;2.8;2.4;;;;;;;13.99;100;94776.36;;;;
2021/08/05 01:51:52;;;;;;;2.8;2.4;;;;;;;13.99;100;94776.36;;;;
2021/08/05 01:52:53;;;;;;;2.8;2.4;;;;;;;13.99;100;94776.36;;;;
2021/08/05 01:53:54;;;;;;;2.8;2.4;;;;;;;13.99;100;94776.36;;;;
2021/08/05 01:54:55;;;;;;;2.8;2.4;;;;;;;13.99;100;94776.36;;;;
2021/08/05 01:55:55;;;;;;;2.8;2.4;;;;;;;13.99;100;94776.36;;;;
2021/08/05 01:56:56;;;;;;;2.8;2.4;;;;;;;13.99;100;94776.36;;;;
2021/08/05 01:57:57;;;;;;;2.8;2.4;;;;;;;13.99;100;94776.36;;;;
2021/08/05 01:58:59;;;;;;;2.8;2.4;;;;;;;13.99;100;94776.36;;;;
2021/08/05 02:00:00;;;;;;;4.9;2.95;;;;;;;13.96;100;94771.45;;;;
2021/08/05 02:01:01;;;;;;;4.9;2.95;;;;;;;13.96;100;94771.45;;;;
2021/08/05 02:02:02;;;;;;;4.9;2.95;;;;;;;13.96;100;94771.45;;;;
2021/08/05 02:03:03;;;;;;;4.9;2.95;;;;;;;13.96;100;94771.45;;;;
2021/08/05 02:04:05;;;;;;;4.9;2.95;;;;;;;13.96;100;94771.45;;;;
2021/08/05 02:05:12;;;;;;;4.9;2.95;;;;;;;13.96;100;94771.45;;;;
2021/08/05 02:06:20;;;;;;;4.9;2.95;;;;;;;13.96;100;94771.45;;;;
2021/08/05 02:07:25;;;;;;;4.9;2.95;;;;;;;13.96;100;94771.45;;;;
2021/08/05 02:08:28;;;;;;;4.9;2.95;;;;;;;13.96;100;94771.45;;;;
2021/08/05 02:09:38;;;;;;;4.9;2.95;;;;;;;13.96;100;94771.45;;;;
2021/08/05 02:10:45;;;;;;;3.05;2.4;;;;;;;14;100;94769.42;;;;
2021/08/05 02:11:48;;;;;;;3.05;2.4;;;;;;;14;100;94769.42;;;;
2021/08/05 02:12:52;;;;;;;3.05;2.4;;;;;;;14;100;94769.42;;;;
2021/08/05 02:13:59;;;;;;;3.05;2.4;;;;;;;14;100;94769.42;;;;
2021/08/05 02:15:02;;;;;;;3.05;2.4;;;;;;;14;100;94769.42;;;;
2021/08/05 02:16:04;;;;;;;3.05;2.4;;;;;;;14;100;94769.42;;;;
2021/08/05 02:17:08;;;;;;;3.05;2.4;;;;;;;14;100;94769.42;;;;
2021/08/05 02:18:11;;;;;;;3.05;2.4;;;;;;;14;100;94769.42;;;;
2021/08/05 02:19:13;;;;;;;3.05;2.4;;;;;;;14;100;94769.42;;;;
2021/08/05 02:20:15;;;;;;;3.05;2.4;;;;;;;14;100;94769.42;;;;
2021/08/05 02:21:17;;;;;;;2.55;2.35;;;;;;;13.97;100;94768.08;;;;
2021/08/05 02:22:21;;;;;;;2.55;2.35;;;;;;;13.97;100;94768.08;;;;
2021/08/05 02:23:21;;;;;;;2.55;2.35;;;;;;;13.97;100;94768.08;;;;
2021/08/05 02:24:28;;;;;;;2.55;2.35;;;;;;;13.97;100;94768.08;;;;
2021/08/05 02:25:30;;;;;;;2.55;2.35;;;;;;;13.97;100;94768.08;;;;
2021/08/05 02:26:31;;;;;;;2.55;2.35;;;;;;;13.97;100;94768.08;;;;
2021/08/05 02:27:31;;;;;;;2.55;2.35;;;;;;;13.97;100;94768.08;;;;
2021/08/05 02:28:32;;;;;;;2.55;2.35;;;;;;;13.97;100;94768.08;;;;
2021/08/05 02:29:34;;;;;;;2.55;2.35;;;;;;;13.97;100;94768.08;;;;
2021/08/05 02:30:36;;;;;;;2.55;2.35;;;;;;;13.97;100;94768.08;;;;
2021/08/05 02:31:37;;;;;;;2.9;2.45;;;;;;;13.98;100;94776.48;;;;
2021/08/05 02:32:38;;;;;;;2.9;2.45;;;;;;;13.98;100;94776.48;;;;
2021/08/05 02:33:40;;;;;;;2.9;2.45;;;;;;;13.98;100;94776.48;;;;
2021/08/05 02:34:42;;;;;;;2.9;2.45;;;;;;;13.98;100;94776.48;;;;
2021/08/05 02:35:43;;;;;;;2.9;2.45;;;;;;;13.98;100;94776.48;;;;
2021/08/05 02:36:45;;;;;;;2.9;2.45;;;;;;;13.98;100;94776.48;;;;
2021/08/05 02:37:46;;;;;;;2.9;2.45;;;;;;;13.98;100;94776.48;;;;
2021/08/05 02:38:46;;;;;;;2.9;2.45;;;;;;;13.98;100;94776.48;;;;
2021/08/05 02:39:47;;;;;;;2.9;2.45;;;;;;;13.98;100;94776.48;;;;
2021/08/05 02:40:48;;;;;;;2.9;2.45;;;;;;;13.98;100;94776.48;;;;
2021/08/05 02:41:49;;;;;;;2.9;2.45;;;;;;;13.98;100;94776.48;;;;
2021/08/05 02:42:51;;;;;;;2.6;2.2;;;;;;;13.92;100;94767.1;;;;
2021/08/05 02:43:53;;;;;;;2.6;2.2;;;;;;;13.92;100;94767.1;;;;
2021/08/05 02:44:54;;;;;;;2.6;2.2;;;;;;;13.92;100;94767.1;;;;
2021/08/05 02:45:56;;;;;;;2.6;2.2;;;;;;;13.92;100;94767.1;;;;
2021/08/05 02:46:57;;;;;;;2.6;2.2;;;;;;;13.92;100;94767.1;;;;
2021/08/05 02:47:59;;;;;;;2.6;2.2;;;;;;;13.92;100;94767.1;;;;
2021/08/05 02:49:01;;;;;;;2.6;2.2;;;;;;;13.92;100;94767.1;;;;
2021/08/05 02:50:05;;;;;;;2.6;2.2;;;;;;;13.92;100;94767.1;;;;
2021/08/05 02:51:07;;;;;;;2.6;2.2;;;;;;;13.92;100;94767.1;;;;
2021/08/05 02:52:09;;;;;;;2.6;2.2;;;;;;;13.92;100;94767.1;;;;
2021/08/05 02:53:10;;;;;;;2.85;2.3;;;;;;;13.88;100;94759.78;;;;
2021/08/05 02:54:11;;;;;;;2.85;2.3;;;;;;;13.88;100;94759.78;;;;
2021/08/05 02:55:12;;;;;;;2.85;2.3;;;;;;;13.88;100;94759.78;;;;
2021/08/05 02:56:16;;;;;;;2.85;2.3;;;;;;;13.88;100;94759.78;;;;
2021/08/05 02:57:18;;;;;;;2.85;2.3;;;;;;;13.88;100;94759.78;;;;
2021/08/05 02:58:18;;;;;;;2.85;2.3;;;;;;;13.88;100;94759.78;;;;
2021/08/05 02:59:19;;;;;;;2.85;2.3;;;;;;;13.88;100;94759.78;;;;
2021/08/05 03:00:20;;;;;;;2.85;2.3;;;;;;;13.88;100;94759.78;;;;
2021/08/05 03:01:22;;;;;;;2.85;2.3;;;;;;;13.88;100;94759.78;;;;
2021/08/05 03:02:23;;;;;;;2.85;2.3;;;;;;;13.88;100;94759.78;;;;
2021/08/05 03:03:24;;;;;;;3;2.45;;;;;;;13.86;100;94756.11;;;;
2021/08/05 03:04:24;;;;;;;3;2.45;;;;;;;13.86;100;94756.11;;;;
2021/08/05 03:05:30;;;;;;;3;2.45;;;;;;;13.86;100;94756.11;;;;
2021/08/05 03:06:31;;;;;;;3;2.45;;;;;;;13.86;100;94756.11;;;;
2021/08/05 03:07:32;;;;;;;3;2.45;;;;;;;13.86;100;94756.11;;;;
2021/08/05 03:08:33;;;;;;;3;2.45;;;;;;;13.86;100;94756.11;;;;
2021/08/05 03:09:38;;;;;;;3;2.45;;;;;;;13.86;100;94756.11;;;;
2021/08/05 03:10:38;;;;;;;3;2.45;;;;;;;13.86;100;94756.11;;;;
2021/08/05 03:11:39;;;;;;;3;2.45;;;;;;;13.86;100;94756.11;;;;
2021/08/05 03:12:40;;;;;;;3;2.45;;;;;;;13.86;100;94756.11;;;;
2021/08/05 03:13:40;;;;;;;3;2.45;;;;;;;13.86;100;94756.11;;;;
2021/08/05 03:14:41;;;;;;;3.2;2.9;;;;;;;13.83;100;94759.78;;;;
2021/08/05 03:15:41;;;;;;;3.2;2.9;;;;;;;13.83;100;94759.78;;;;
2021/08/05 03:16:42;;;;;;;3.2;2.9;;;;;;;13.83;100;94759.78;;;;
2021/08/05 03:17:43;;;;;;;3.2;2.9;;;;;;;13.83;100;94759.78;;;;
2021/08/05 03:18:43;;;;;;;3.2;2.9;;;;;;;13.83;100;94759.78;;;;
2021/08/05 03:19:44;;;;;;;3.2;2.9;;;;;;;13.83;100;94759.78;;;;
2021/08/05 03:20:44;;;;;;;3.2;2.9;;;;;;;13.83;100;94759.78;;;;
2021/08/05 03:21:45;;;;;;;3.2;2.9;;;;;;;13.83;100;94759.78;;;;
2021/08/05 03:22:45;;;;;;;3.2;2.9;;;;;;;13.83;100;94759.78;;;;
2021/08/05 03:23:46;;;;;;;3.2;2.9;;;;;;;13.83;100;94759.78;;;;
2021/08/05 03:24:47;;;;;;;4.2;3.25;;;;;;;13.8;100;94767.91;;;;
2021/08/05 03:25:47;;;;;;;4.2;3.25;;;;;;;13.8;100;94767.91;;;;
2021/08/05 03:26:48;;;;;;;4.2;3.25;;;;;;;13.8;100;94767.91;;;;
2021/08/05 03:27:48;;;;;;;4.2;3.25;;;;;;;13.8;100;94767.91;;;;
2021/08/05 03:28:49;;;;;;;4.2;3.25;;;;;;;13.8;100;94767.91;;;;
2021/08/05 03:29:49;;;;;;;4.2;3.25;;;;;;;13.8;100;94767.91;;;;
2021/08/05 03:30:50;;;;;;;4.2;3.25;;;;;;;13.8;100;94767.91;;;;
2021/08/05 03:31:50;;;;;;;4.2;3.25;;;;;;;13.8;100;94767.91;;;;
2021/08/05 03:32:51;;;;;;;4.2;3.25;;;;;;;13.8;100;94767.91;;;;
2021/08/05 03:33:51;;;;;;;4.2;3.25;;;;;;;13.8;100;94767.91;;;;
2021/08/05 03:34:52;;;;;;;4.2;3.25;;;;;;;13.8;100;94767.91;;;;
2021/08/05 03:35:52;;;;;;;4.05;3.6;;;;;;;13.78;100;94766.15;;;;
2021/08/05 03:36:53;;;;;;;4.05;3.6;;;;;;;13.78;100;94766.15;;;;
2021/08/05 03:37:53;;;;;;;4.05;3.6;;;;;;;13.78;100;94766.15;;;;
2021/08/05 03:38:54;;;;;;;4.05;3.6;;;;;;;13.78;100;94766.15;;;;
2021/08/05 03:39:54;;;;;;;4.05;3.6;;;;;;;13.78;100;94766.15;;;;
2021/08/05 03:40:55;;;;;;;4.05;3.6;;;;;;;13.78;100;94766.15;;;;
2021/08/05 03:41:56;;;;;;;4.05;3.6;;;;;;;13.78;100;94766.15;;;;
2021/08/05 03:42:56;;;;;;;4.05;3.6;;;;;;;13.78;100;94766.15;;;;
2021/08/05 03:43:57;;;;;;;4.05;3.6;;;;;;;13.78;100;94766.15;;;;
2021/08/05 03:44:57;;;;;;;4.05;3.6;;;;;;;13.78;100;94766.15;;;;
2021/08/05 03:45:58;;;;;;;4.050001;3.2;;;;;;;13.81;100;94764.12;;;;
2021/08/05 03:46:58;;;;;;;4.050001;3.2;;;;;;;13.81;100;94764.12;;;;
2021/08/05 03:47:59;;;;;;;4.050001;3.2;;;;;;;13.81;100;94764.12;;;;
2021/08/05 03:48:59;;;;;;;4.050001;3.2;;;;;;;13.81;100;94764.12;;;;
2021/08/05 03:50:00;;;;;;;4.050001;3.2;;;;;;;13.81;100;94764.12;;;;
2021/08/05 03:51:00;;;;;;;4.050001;3.2;;;;;;;13.81;100;94764.12;;;;
2021/08/05 03:52:01;;;;;;;4.050001;3.2;;;;;;;13.81;100;94764.12;;;;
2021/08/05 03:53:02;;;;;;;4.050001;3.2;;;;;;;13.81;100;94764.12;;;;
2021/08/05 03:54:03;;;;;;;4.050001;3.2;;;;;;;13.81;100;94764.12;;;;
2021/08/05 03:55:04;;;;;;;4.050001;3.2;;;;;;;13.81;100;94764.12;;;;
2021/08/05 03:56:06;;;;;;;4.050001;3.2;;;;;;;13.81;100;94764.12;;;;
2021/08/05 03:57:06;;;;;;;4.3;3.7;;;;;;;13.8;100;94762.62;;;;
2021/08/05 03:58:09;;;;;;;4.3;3.7;;;;;;;13.8;100;94762.62;;;;
2021/08/05 03:59:10;;;;;;;4.3;3.7;;;;;;;13.8;100;94762.62;;;;
2021/08/05 04:00:10;;;;;;;4.3;3.7;;;;;;;13.8;100;94762.62;;;;
2021/08/05 04:01:13;;;;;;;4.3;3.7;;;;;;;13.8;100;94762.62;;;;
2021/08/05 04:02:14;;;;;;;4.3;3.7;;;;;;;13.8;100;94762.62;;;;
2021/08/05 04:03:14;;;;;;;4.3;3.7;;;;;;;13.8;100;94762.62;;;;
2021/08/05 04:04:15;;;;;;;4.3;3.7;;;;;;;13.8;100;94762.62;;;;
2021/08/05 04:05:15;;;;;;;4.3;3.7;;;;;;;13.8;100;94762.62;;;;
2021/08/05 04:06:16;;;;;;;4.3;3.7;;;;;;;13.8;100;94762.62;;;;
2021/08/05 04:07:16;;;;;;;5.300001;4.149999;;;;;;;13.79;100;94758.26;;;;
2021/08/05 04:08:17;;;;;;;5.300001;4.149999;;;;;;;13.79;100;94758.26;;;;
2021/08/05 04:09:17;;;;;;;5.300001;4.149999;;;;;;;13.79;100;94758.26;;;;
2021/08/05 04:10:18;;;;;;;5.300001;4.149999;;;;;;;13.79;100;94758.26;;;;
2021/08/05 04:11:18;;;;;;;5.300001;4.149999;;;;;;;13.79;100;94758.26;;;;
2021/08/05 04:12:19;;;;;;;5.300001;4.149999;;;;;;;13.79;100;94758.26;;;;
2021/08/05 04:13:19;;;;;;;5.300001;4.149999;;;;;;;13.79;100;94758.26;;;;
2021/08/05 04:14:20;;;;;;;5.300001;4.149999;;;;;;;13.79;100;94758.26;;;;
2021/08/05 04:15:21;;;;;;;5.300001;4.149999;;;;;;;13.79;100;94758.26;;;;
2021/08/05 04:16:21;;;;;;;5.300001;4.149999;;;;;;;13.79;100;94758.26;;;;
2021/08/05 04:17:22;;;;;;;5.300001;4.149999;;;;;;;13.79;100;94758.26;;;;
2021/08/05 04:18:22;;;;;;;5.300001;4.149999;;;;;;;13.79;100;94758.26;;;;
2021/08/05 04:19:26;;;;;;;5.300001;4.149999;;;;;;;13.79;100;94758.26;;;;
2021/08/05 04:20:26;;;;;;;5.300001;4.149999;;;;;;;13.79;100;94758.26;;;;
2021/08/05 04:21:27;;;;;;;5.300001;4.149999;;;;;;;13.79;100;94758.26;;;;
2021/08/05 04:22:27;;;;;;;5.300001;4.149999;;;;;;;13.79;100;94758.26;;;;
2021/08/05 04:23:28;;;;;;;5.300001;4.149999;;;;;;;13.79;100;94758.26;;;;
2021/08/05 04:24:28;;;;;;;5.300001;4.149999;;;;;;;13.79;100;94758.26;;;;
2021/08/05 04:25:29;;;;;;;5.300001;4.149999;;;;;;;13.79;100;94758.26;;;;
2021/08/05 04:26:29;;;;;;;5.300001;4.149999;;;;;;;13.79;100;94758.26;;;;
2021/08/05 04:27:30;;;;;;;5.300001;4.149999;;;;;;;13.79;100;94758.26;;;;
2021/08/05 04:28:30;;;;;;;5.300001;4.149999;;;;;;;13.79;100;94758.26;;;;
2021/08/05 04:29:31;;;;;;;9.249999;6.6;;;;;;;13.83;100;94759.22;;;;
2021/08/05 04:30:32;;;;;;;9.249999;6.6;;;;;;;13.83;100;94759.22;;;;
2021/08/05 04:31:32;;;;;;;9.249999;6.6;;;;;;;13.83;100;94759.22;;;;
2021/08/05 04:32:33;;;;;;;9.249999;6.6;;;;;;;13.83;100;94759.22;;;;
2021/08/05 04:33:34;;;;;;;9.249999;6.6;;;;;;;13.83;100;94759.22;;;;
2021/08/05 04:34:35;;;;;;;9.249999;6.6;;;;;;;13.83;100;94759.22;;;;
2021/08/05 04:35:36;;;;;;;9.249999;6.6;;;;;;;13.83;100;94759.22;;;;
2021/08/05 04:36:36;;;;;;;9.249999;6.6;;;;;;;13.83;100;94759.22;;;;
2021/08/05 04:37:37;;;;;;;9.249999;6.6;;;;;;;13.83;100;94759.22;;;;
2021/08/05 04:38:47;;;;;;;9.249999;6.6;;;;;;;13.83;100;94759.22;;;;
2021/08/05 04:39:48;;;;;;;8.15;5.45;;;;;;;13.84;100;94754.08;;;;
2021/08/05 04:40:48;;;;;;;8.15;5.45;;;;;;;13.84;100;94754.08;;;;
2021/08/05 04:41:49;;;;;;;8.15;5.45;;;;;;;13.84;100;94754.08;;;;
2021/08/05 04:42:49;;;;;;;8.15;5.45;;;;;;;13.84;100;94754.08;;;;
2021/08/05 04:43:51;;;;;;;8.15;5.45;;;;;;;13.84;100;94754.08;;;;
2021/08/05 04:44:52;;;;;;;8.15;5.45;;;;;;;13.84;100;94754.08;;;;
2021/08/05 04:45:52;;;;;;;8.15;5.45;;;;;;;13.84;100;94754.08;;;;
2021/08/05 04:46:53;;;;;;;8.15;5.45;;;;;;;13.84;100;94754.08;;;;
2021/08/05 04:47:54;;;;;;;8.15;5.45;;;;;;;13.84;100;94754.08;;;;
2021/08/05 04:48:56;;;;;;;8.15;5.45;;;;;;;13.84;100;94754.08;;;;
2021/08/05 04:49:57;;;;;;;9.200001;5.799999;;;;;;;13.95;100;94746.77;;;;
2021/08/05 04:50:57;;;;;;;9.200001;5.799999;;;;;;;13.95;100;94746.77;;;;
2021/08/05 04:51:58;;;;;;;9.200001;5.799999;;;;;;;13.95;100;94746.77;;;;
2021/08/05 04:52:59;;;;;;;9.200001;5.799999;;;;;;;13.95;100;94746.77;;;;
2021/08/05 04:54:00;;;;;;;9.200001;5.799999;;;;;;;13.95;100;94746.77;;;;
2021/08/05 04:55:01;;;;;;;9.200001;5.799999;;;;;;;13.95;100;94746.77;;;;
2021/08/05 04:56:02;;;;;;;9.200001;5.799999;;;;;;;13.95;100;94746.77;;;;
2021/08/05 04:57:03;;;;;;;9.200001;5.799999;;;;;;;13.95;100;94746.77;;;;
2021/08/05 04:58:04;;;;;;;9.200001;5.799999;;;;;;;13.95;100;94746.77;;;;
2021/08/05 04:59:06;;;;;;;9.200001;5.799999;;;;;;;13.95;100;94746.77;;;;
2021/08/05 05:00:06;;;;;;;9.200001;5.799999;;;;;;;13.95;100;94746.77;;;;
2021/08/05 05:01:08;;;;;;;5.65;5.05;;;;;;;14.09;100;94746.91;;;;
2021/08/05 05:02:09;;;;;;;5.65;5.05;;;;;;;14.09;100;94746.91;;;;
2021/08/05 05:03:09;;;;;;;5.65;5.05;;;;;;;14.09;100;94746.91;;;;
2021/08/05 05:04:11;;;;;;;5.65;5.05;;;;;;;14.09;100;94746.91;;;;
2021/08/05 05:05:11;;;;;;;5.65;5.05;;;;;;;14.09;100;94746.91;;;;
2021/08/05 05:06:12;;;;;;;5.65;5.05;;;;;;;14.09;100;94746.91;;;;
2021/08/05 05:07:12;;;;;;;5.65;5.05;;;;;;;14.09;100;94746.91;;;;
2021/08/05 05:08:13;;;;;;;5.65;5.05;;;;;;;14.09;100;94746.91;;;;
2021/08/05 05:09:15;;;;;;;5.65;5.05;;;;;;;14.09;100;94746.91;;;;
2021/08/05 05:10:16;;;;;;;5.65;5.05;;;;;;;14.09;100;94746.91;;;;
2021/08/05 05:11:17;;;;;;;6.45;5.25;;;;;;;14.17;100;94749.49;;;;
2021/08/05 05:12:18;;;;;;;6.45;5.25;;;;;;;14.17;100;94749.49;;;;
2021/08/05 05:13:19;;;;;;;6.45;5.25;;;;;;;14.17;100;94749.49;;;;
2021/08/05 05:14:19;;;;;;;6.45;5.25;;;;;;;14.17;100;94749.49;;;;
2021/08/05 05:15:20;;;;;;;6.45;5.25;;;;;;;14.17;100;94749.49;;;;
2021/08/05 05:16:20;;;;;;;6.45;5.25;;;;;;;14.17;100;94749.49;;;;
2021/08/05 05:17:21;;;;;;;6.45;5.25;;;;;;;14.17;100;94749.49;;;;
2021/08/05 05:18:21;;;;;;;6.45;5.25;;;;;;;14.17;100;94749.49;;;;
2021/08/05 05:19:23;;;;;;;6.45;5.25;;;;;;;14.17;100;94749.49;;;;
2021/08/05 05:20:24;;;;;;;6.45;5.25;;;;;;;14.17;100;94749.49;;;;
2021/08/05 05:21:24;;;;;;;6.45;5.25;;;;;;;14.17;100;94749.49;;;;
2021/08/05 05:22:25;;;;;;;6.7;5.45;;;;;;;14.27;100;94744.64;;;;
2021/08/05 05:23:25;;;;;;;6.7;5.45;;;;;;;14.27;100;94744.64;;;;
2021/08/05 05:24:26;;;;;;;6.7;5.45;;;;;;;14.27;100;94744.64;;;;
2021/08/05 05:25:27;;;;;;;6.7;5.45;;;;;;;14.27;100;94744.64;;;;
2021/08/05 05:26:28;;;;;;;6.7;5.45;;;;;;;14.27;100;94744.64;;;;
2021/08/05 05:27:28;;;;;;;6.7;5.45;;;;;;;14.27;100;94744.64;;;;
2021/08/05 05:28:30;;;;;;;6.7;5.45;;;;;;;14.27;100;94744.64;;;;
2021/08/05 05:29:31;;;;;;;6.7;5.45;;;;;;;14.27;100;94744.64;;;;
2021/08/05 05:30:31;;;;;;;6.7;5.45;;;;;;;14.27;100;94744.64;;;;
2021/08/05 05:31:33;;;;;;;6.7;5.45;;;;;;;14.27;100;94744.64;;;;
2021/08/05 05:32:33;;;;;;;6.7;5.45;;;;;;;14.27;100;94744.64;;;;
2021/08/05 05:33:34;;;;;;;5.599999;4.85;;;;;;;14.36;100;94757;;;;
2021/08/05 05:34:35;;;;;;;5.599999;4.85;;;;;;;14.36;100;94757;;;;
2021/08/05 05:35:35;;;;;;;5.599999;4.85;;;;;;;14.36;100;94757;;;;
2021/08/05 05:36:37;;;;;;;5.599999;4.85;;;;;;;14.36;100;94757;;;;
2021/08/05 05:37:38;;;;;;;5.599999;4.85;;;;;;;14.36;100;94757;;;;
2021/08/05 05:38:38;;;;;;;5.599999;4.85;;;;;;;14.36;100;94757;;;;
2021/08/05 05:39:39;;;;;;;5.599999;4.85;;;;;;;14.36;100;94757;;;;
2021/08/05 05:40:39;;;;;;;5.599999;4.85;;;;;;;14.36;100;94757;;;;
2021/08/05 05:41:40;;;;;;;5.599999;4.85;;;;;;;14.36;100;94757;;;;
2021/08/05 05:42:41;;;;;;;5.599999;4.85;;;;;;;14.36;100;94757;;;;
2021/08/05 05:43:41;;;;;;;5.25;4.3;;;;;;;14.47;100;94758.75;;;;
2021/08/05 05:44:42;;;;;;;5.25;4.3;;;;;;;14.47;100;94758.75;;;;
2021/08/05 05:45:43;;;;;;;5.25;4.3;;;;;;;14.47;100;94758.75;;;;
2021/08/05 05:46:45;;;;;;;5.25;4.3;;;;;;;14.47;100;94758.75;;;;
2021/08/05 05:47:45;;;;;;;5.25;4.3;;;;;;;14.47;100;94758.75;;;;
2021/08/05 05:48:46;;;;;;;5.25;4.3;;;;;;;14.47;100;94758.75;;;;
2021/08/05 05:49:46;;;;;;;5.25;4.3;;;;;;;14.47;100;94758.75;;;;
2021/08/05 05:50:47;;;;;;;5.25;4.3;;;;;;;14.47;100;94758.75;;;;
2021/08/05 05:51:48;;;;;;;5.25;4.3;;;;;;;14.47;100;94758.75;;;;
2021/08/05 05:52:48;;;;;;;5.25;4.3;;;;;;;14.47;100;94758.75;;;;
2021/08/05 05:53:49;;;;;;;5.25;4.3;;;;;;;14.47;100;94758.75;;;;
2021/08/05 05:54:50;;;;;;;5.150001;3.85;;;;;;;14.55;100;94763.5;;;;
2021/08/05 05:55:52;;;;;;;5.150001;3.85;;;;;;;14.55;100;94763.5;;;;
2021/08/05 05:56:52;;;;;;;5.150001;3.85;;;;;;;14.55;100;94763.5;;;;
2021/08/05 05:57:53;;;;;;;5.150001;3.85;;;;;;;14.55;100;94763.5;;;;
2021/08/05 05:58:53;;;;;;;5.150001;3.85;;;;;;;14.55;100;94763.5;;;;
2021/08/05 05:59:54;;;;;;;5.150001;3.85;;;;;;;14.55;100;94763.5;;;;
2021/08/05 06:00:56;;;;;;;5.150001;3.85;;;;;;;14.55;100;94763.5;;;;
2021/08/05 06:01:57;;;;;;;5.150001;3.85;;;;;;;14.55;100;94763.5;;;;
2021/08/05 06:02:57;;;;;;;5.150001;3.85;;;;;;;14.55;100;94763.5;;;;
2021/08/05 06:03:58;;;;;;;5.150001;3.85;;;;;;;14.55;100;94763.5;;;;
2021/08/05 06:04:58;;;;;;;4.35;3.95;;;;;;;14.53;100;94765.29;;;;
2021/08/05 06:05:59;;;;;;;4.35;3.95;;;;;;;14.53;100;94765.29;;;;
2021/08/05 06:06:59;;;;;;;4.35;3.95;;;;;;;14.53;100;94765.29;;;;
2021/08/05 06:08:00;;;;;;;4.35;3.95;;;;;;;14.53;100;94765.29;;;;
2021/08/05 06:09:02;;;;;;;4.35;3.95;;;;;;;14.53;100;94765.29;;;;
2021/08/05 06:10:02;;;;;;;4.35;3.95;;;;;;;14.53;100;94765.29;;;;
2021/08/05 06:11:03;;;;;;;4.35;3.95;;;;;;;14.53;100;94765.29;;;;
2021/08/05 06:12:04;;;;;;;4.35;3.95;;;;;;;14.53;100;94765.29;;;;